createdAt,value
2022-10-16T00:00:45.156Z,12.16
2022-10-16T00:03:47.945Z,12.13
2022-10-16T00:06:49.268Z,12.09
2022-10-16T00:09:50.816Z,12.12
2022-10-16T00:12:52.168Z,12.11
2022-10-16T00:15:57.165Z,12.08
2022-10-16T00:18:58.903Z,12.07
2022-10-16T00:22:00.224Z,12.07
2022-10-16T00:25:01.561Z,12.12
2022-10-16T00:28:03.029Z,12.16
2022-10-16T00:31:09.742Z,12.23
2022-10-16T00:34:11.188Z,12.24
2022-10-16T00:37:13.410Z,12.23
2022-10-16T00:40:14.766Z,12.21
2022-10-16T00:43:36.255Z,12.20
2022-10-16T00:46:43.073Z,12.23
2022-10-16T00:49:44.510Z,12.18
2022-10-16T00:52:49.035Z,12.10
2022-10-16T00:55:50.435Z,12.02
2022-10-16T00:58:51.831Z,11.98
2022-10-16T01:01:54.304Z,11.92
2022-10-16T01:04:55.963Z,11.88
2022-10-16T01:08:09.548Z,11.86
2022-10-16T01:11:25.716Z,11.81
2022-10-16T01:14:49.583Z,11.78
2022-10-16T01:17:53.865Z,11.75
2022-10-16T01:21:03.739Z,11.73
2022-10-16T01:24:32.112Z,11.68
2022-10-16T01:27:36.830Z,11.69
2022-10-16T01:30:39.782Z,11.64
2022-10-16T01:33:47.336Z,11.59
2022-10-16T01:36:54.248Z,11.54
2022-10-16T01:39:59.292Z,11.48
2022-10-16T01:43:06.043Z,11.44
2022-10-16T01:46:09.433Z,11.43
2022-10-16T01:49:11.235Z,11.22
2022-10-16T01:52:20.545Z,11.33
2022-10-16T01:55:34.768Z,11.34
2022-10-16T01:58:43.181Z,11.32
2022-10-16T02:01:50.185Z,11.29
2022-10-16T02:04:59.306Z,11.25
2022-10-16T02:08:03.208Z,11.22
2022-10-16T02:11:07.424Z,11.21
2022-10-16T02:14:08.770Z,11.18
2022-10-16T02:17:17.863Z,11.15
2022-10-16T02:20:25.671Z,11.13
2022-10-16T02:23:46.358Z,11.12
2022-10-16T02:27:06.806Z,11.07
2022-10-16T02:30:14.131Z,11.07
2022-10-16T02:33:16.987Z,11.02
2022-10-16T02:36:18.524Z,11.00
2022-10-16T02:39:21.279Z,11.02
2022-10-16T02:42:29.139Z,10.98
2022-10-16T02:45:30.603Z,10.95
2022-10-16T02:48:31.951Z,10.91
2022-10-16T02:51:33.392Z,10.87
2022-10-16T02:54:34.748Z,10.83
2022-10-16T02:57:36.128Z,10.81
2022-10-16T03:00:37.543Z,10.79
2022-10-16T03:03:39.352Z,10.76
2022-10-16T03:06:40.700Z,10.72
2022-10-16T03:09:42.240Z,10.70
2022-10-16T03:12:43.561Z,10.69
2022-10-16T03:15:44.912Z,10.66
2022-10-16T03:18:49.726Z,10.66
2022-10-16T03:21:51.052Z,10.60
2022-10-16T03:24:52.430Z,10.58
2022-10-16T03:27:53.756Z,10.58
2022-10-16T03:30:55.116Z,10.59
2022-10-16T03:33:56.665Z,10.60
2022-10-16T03:36:58.193Z,10.59
2022-10-16T03:39:59.657Z,10.59
2022-10-16T03:43:01.079Z,10.64
2022-10-16T03:46:02.537Z,10.66
2022-10-16T03:49:06.103Z,10.63
2022-10-16T03:52:10.330Z,10.64
2022-10-16T03:55:11.701Z,10.64
2022-10-16T03:58:13.102Z,10.64
2022-10-16T04:01:14.599Z,10.63
2022-10-16T04:04:15.966Z,10.60
2022-10-16T04:07:17.346Z,10.57
2022-10-16T04:10:18.952Z,10.61
2022-10-16T04:16:26.723Z,10.63
2022-10-16T04:19:28.074Z,10.61
2022-10-16T04:22:29.763Z,10.60
2022-10-16T04:25:31.269Z,10.56
2022-10-16T04:28:32.662Z,10.55
2022-10-16T04:31:34.507Z,10.52
2022-10-16T04:34:35.931Z,10.50
2022-10-16T04:37:37.294Z,10.50
2022-10-16T04:40:38.772Z,10.49
2022-10-16T04:43:40.167Z,10.51
2022-10-16T04:46:41.503Z,10.56
2022-10-16T04:49:42.843Z,10.56
2022-10-16T04:52:44.232Z,10.60
2022-10-16T04:55:45.564Z,10.66
2022-10-16T04:58:46.923Z,10.69
2022-10-16T05:01:48.711Z,10.70
2022-10-16T05:04:50.056Z,10.69
2022-10-16T05:07:51.420Z,10.72
2022-10-16T05:10:52.750Z,10.71
2022-10-16T05:13:55.841Z,10.72
2022-10-16T05:16:57.383Z,10.57
2022-10-16T05:19:58.845Z,10.68
2022-10-16T05:23:00.224Z,10.71
2022-10-16T05:26:01.662Z,10.71
2022-10-16T05:29:03.191Z,10.68
2022-10-16T05:32:04.577Z,10.67
2022-10-16T05:35:08.684Z,10.67
2022-10-16T05:38:15.936Z,10.64
2022-10-16T05:41:17.281Z,10.67
2022-10-16T05:44:18.628Z,10.70
2022-10-16T05:47:20.109Z,10.76
2022-10-16T05:50:21.513Z,10.81
2022-10-16T05:53:22.827Z,10.83
2022-10-16T05:56:24.171Z,10.82
2022-10-16T05:59:25.571Z,10.82
2022-10-16T06:02:26.980Z,10.80
2022-10-16T06:05:28.382Z,10.80
2022-10-16T06:08:29.703Z,10.78
2022-10-16T06:11:33.967Z,10.82
2022-10-16T06:14:35.343Z,10.83
2022-10-16T06:17:36.704Z,10.75
2022-10-16T06:20:38.211Z,10.65
2022-10-16T06:23:39.834Z,10.59
2022-10-16T06:26:41.220Z,10.59
2022-10-16T06:29:42.952Z,10.62
2022-10-16T06:32:44.339Z,10.73
2022-10-16T06:35:45.684Z,10.88
2022-10-16T06:38:47.396Z,11.00
2022-10-16T06:41:48.824Z,11.32
2022-10-16T06:44:50.549Z,11.67
2022-10-16T06:47:51.892Z,11.55
2022-10-16T06:54:06.488Z,11.62
2022-10-16T06:57:07.884Z,11.57
2022-10-16T07:00:09.692Z,11.50
2022-10-16T07:03:11.071Z,11.49
2022-10-16T07:06:14.629Z,11.51
2022-10-16T07:09:15.956Z,11.53
2022-10-16T07:12:17.311Z,11.54
2022-10-16T07:15:18.645Z,11.58
2022-10-16T07:18:20.081Z,11.71
2022-10-16T07:21:22.558Z,11.93
2022-10-16T07:24:23.894Z,12.14
2022-10-16T07:27:25.320Z,12.32
2022-10-16T07:30:26.733Z,12.51
2022-10-16T07:33:28.133Z,12.59
2022-10-16T07:36:29.540Z,12.63
2022-10-16T07:39:30.905Z,12.63
2022-10-16T07:42:32.226Z,12.58
2022-10-16T07:45:33.551Z,12.53
2022-10-16T07:48:35.484Z,12.52
2022-10-16T07:51:36.846Z,12.55
2022-10-16T07:54:38.194Z,12.63
2022-10-16T07:57:39.530Z,12.72
2022-10-16T08:00:40.877Z,12.87
2022-10-16T08:03:43.879Z,13.02
2022-10-16T08:06:45.222Z,13.06
2022-10-16T08:09:50.207Z,13.16
2022-10-16T08:12:52.271Z,13.33
2022-10-16T08:15:54.696Z,13.53
2022-10-16T08:18:56.053Z,13.72
2022-10-16T08:21:57.504Z,13.73
2022-10-16T08:24:58.908Z,13.74
2022-10-16T08:28:00.275Z,13.86
2022-10-16T08:31:12.266Z,13.92
2022-10-16T08:34:13.737Z,13.90
2022-10-16T08:37:15.104Z,13.96
2022-10-16T08:40:30.706Z,13.98
2022-10-16T08:43:35.035Z,13.87
2022-10-16T08:46:36.349Z,13.82
2022-10-16T08:52:46.032Z,14.39
2022-10-16T08:55:52.368Z,14.64
2022-10-16T08:58:58.192Z,14.77
2022-10-16T09:02:02.848Z,14.94
2022-10-16T09:05:23.013Z,15.22
2022-10-16T09:08:45.629Z,15.56
2022-10-16T09:11:53.846Z,15.84
2022-10-16T09:15:30.306Z,15.85
2022-10-16T09:18:39.834Z,15.92
2022-10-16T09:21:44.901Z,16.12
2022-10-16T09:24:46.454Z,16.17
2022-10-16T09:27:51.866Z,16.08
2022-10-16T09:30:53.470Z,16.06
2022-10-16T09:34:01.051Z,16.24
2022-10-16T09:37:09.508Z,16.39
2022-10-16T09:40:25.241Z,16.21
2022-10-16T09:43:41.348Z,16.33
2022-10-16T09:46:42.719Z,16.47
2022-10-16T09:49:52.842Z,16.61
2022-10-16T09:53:05.391Z,16.67
2022-10-16T09:56:10.322Z,16.77
2022-10-16T09:59:21.951Z,16.90
2022-10-16T10:02:34.764Z,16.92
2022-10-16T10:05:36.140Z,17.19
2022-10-16T10:08:37.501Z,17.30
2022-10-16T10:11:58.602Z,16.95
2022-10-16T10:15:07.357Z,17.08
2022-10-16T10:18:19.857Z,17.32
2022-10-16T10:21:21.182Z,17.16
2022-10-16T10:24:22.576Z,17.14
2022-10-16T10:27:39.564Z,17.11
2022-10-16T10:30:49.967Z,17.08
2022-10-16T10:34:01.777Z,16.98
2022-10-16T10:37:34.406Z,17.21
2022-10-16T10:40:50.853Z,16.80
2022-10-16T10:44:29.579Z,16.85
2022-10-16T10:47:45.857Z,17.22
2022-10-16T10:50:54.690Z,17.43
2022-10-16T10:54:04.211Z,17.47
2022-10-16T10:57:19.990Z,17.59
2022-10-16T11:00:30.999Z,17.74
2022-10-16T11:03:32.294Z,17.66
2022-10-16T11:06:40.906Z,17.47
2022-10-16T11:09:46.744Z,17.62
2022-10-16T11:12:55.919Z,17.67
2022-10-16T11:16:01.352Z,17.53
2022-10-16T11:19:15.491Z,17.14
2022-10-16T11:22:38.992Z,16.93
2022-10-16T11:25:40.607Z,16.87
2022-10-16T11:28:50.374Z,17.36
2022-10-16T11:31:57.537Z,18.07
2022-10-16T11:35:07.852Z,18.38
2022-10-16T11:38:18.210Z,18.52
2022-10-16T11:41:54.136Z,18.09
2022-10-16T11:45:01.096Z,17.99
2022-10-16T11:48:21.112Z,17.99
2022-10-16T11:51:43.925Z,18.31
2022-10-16T11:55:15.476Z,18.38
2022-10-16T11:58:42.436Z,18.51
2022-10-16T12:01:50.526Z,18.52
2022-10-16T12:05:01.761Z,18.31
2022-10-16T12:08:14.686Z,17.94
2022-10-16T12:11:32.381Z,17.55
2022-10-16T12:14:34.967Z,17.41
2022-10-16T12:17:39.481Z,17.51
2022-10-16T12:20:40.898Z,17.38
2022-10-16T12:24:01.066Z,17.14
2022-10-16T12:27:03.771Z,16.91
2022-10-16T12:30:07.250Z,17.06
2022-10-16T12:33:23.922Z,16.82
2022-10-16T12:36:34.567Z,16.47
2022-10-16T12:39:37.261Z,16.37
2022-10-16T12:42:38.598Z,16.22
2022-10-16T12:45:40.135Z,16.25
2022-10-16T12:48:55.276Z,16.29
2022-10-16T12:52:03.686Z,16.66
2022-10-16T12:55:16.048Z,16.89
2022-10-16T12:58:32.915Z,17.05
2022-10-16T13:02:01.975Z,17.28
2022-10-16T13:05:12.287Z,17.34
2022-10-16T13:08:23.359Z,17.19
2022-10-16T13:11:50.135Z,17.33
2022-10-16T13:15:01.479Z,17.59
2022-10-16T13:18:22.524Z,17.68
2022-10-16T13:21:42.621Z,17.75
2022-10-16T13:24:55.928Z,17.72
2022-10-16T13:28:06.561Z,17.57
2022-10-16T13:31:22.464Z,17.69
2022-10-16T13:34:23.952Z,17.65
2022-10-16T13:37:26.274Z,17.55
2022-10-16T13:40:27.953Z,17.31
2022-10-16T13:43:48.811Z,17.19
2022-10-16T13:47:00.396Z,17.24
2022-10-16T13:50:02.793Z,17.21
2022-10-16T13:53:13.625Z,17.15
2022-10-16T13:56:18.645Z,17.02
2022-10-16T13:59:25.794Z,16.94
2022-10-16T14:02:34.558Z,16.89
2022-10-16T14:05:35.985Z,16.86
2022-10-16T14:08:37.409Z,16.84
2022-10-16T14:11:47.015Z,16.80
2022-10-16T14:14:52.072Z,16.75
2022-10-16T14:17:54.520Z,16.69
2022-10-16T14:21:00.882Z,16.54
2022-10-16T14:24:27.593Z,16.38
2022-10-16T14:27:37.960Z,16.30
2022-10-16T14:30:52.489Z,16.33
2022-10-16T14:33:54.737Z,16.38
2022-10-16T14:36:57.425Z,16.29
2022-10-16T14:39:59.069Z,16.21
2022-10-16T14:43:02.207Z,16.22
2022-10-16T14:46:10.471Z,16.23
2022-10-16T14:49:11.805Z,16.16
2022-10-16T14:52:15.487Z,16.14
2022-10-16T14:55:18.059Z,16.10
2022-10-16T14:58:22.790Z,16.07
2022-10-16T15:01:24.151Z,16.06
2022-10-16T15:04:25.499Z,15.93
2022-10-16T15:07:27.113Z,15.89
2022-10-16T15:10:30.675Z,15.88
2022-10-16T15:13:32.022Z,15.83
2022-10-16T15:16:33.595Z,15.77
2022-10-16T15:19:34.970Z,15.71
2022-10-16T15:22:36.299Z,15.64
2022-10-16T15:25:42.063Z,15.55
2022-10-16T15:28:43.436Z,15.44
2022-10-16T15:31:44.914Z,15.33
2022-10-16T15:34:46.251Z,15.25
2022-10-16T15:37:48.623Z,15.13
2022-10-16T15:40:50.857Z,14.98
2022-10-16T15:43:52.683Z,14.89
2022-10-16T15:46:55.672Z,14.82
2022-10-16T15:49:57.028Z,14.73
2022-10-16T15:52:58.719Z,14.60
2022-10-16T15:56:03.191Z,14.44
2022-10-16T15:59:05.668Z,14.34
2022-10-16T16:02:08.977Z,13.95
2022-10-16T16:05:11.680Z,14.08
2022-10-16T16:08:13.120Z,14.01
2022-10-16T16:11:16.035Z,13.95
2022-10-16T16:14:17.628Z,13.81
2022-10-16T16:17:18.996Z,13.71
2022-10-16T16:20:20.374Z,13.58
2022-10-16T16:23:21.700Z,13.45
2022-10-16T16:26:25.729Z,13.29
2022-10-16T16:29:27.045Z,13.20
2022-10-16T16:32:28.422Z,13.13
2022-10-16T16:35:29.750Z,13.03
2022-10-16T16:38:33.701Z,12.95
2022-10-16T16:41:35.084Z,12.83
2022-10-16T16:44:37.240Z,12.78
2022-10-16T16:47:38.590Z,12.72
2022-10-16T16:50:39.932Z,12.69
2022-10-16T16:53:42.235Z,12.66
2022-10-16T16:56:43.598Z,12.64
2022-10-16T16:59:44.955Z,12.60
2022-10-16T17:02:49.982Z,12.46
2022-10-16T17:05:58.466Z,12.34
2022-10-16T17:09:03.298Z,12.27
2022-10-16T17:12:05.003Z,12.23
2022-10-16T17:15:06.916Z,12.18
2022-10-16T17:18:08.283Z,12.14
2022-10-16T17:21:10.131Z,12.15
2022-10-16T17:24:12.024Z,12.15
2022-10-16T17:27:13.551Z,12.11
2022-10-16T17:30:14.927Z,12.11
2022-10-16T17:33:16.271Z,12.06
2022-10-16T17:36:18.331Z,12.03
2022-10-16T17:39:20.069Z,12.01
2022-10-16T17:42:21.515Z,11.93
2022-10-16T17:45:22.986Z,11.89
2022-10-16T17:48:24.340Z,11.88
2022-10-16T17:51:29.526Z,11.87
2022-10-16T17:54:30.888Z,11.88
2022-10-16T17:57:32.281Z,11.89
2022-10-16T18:00:34.104Z,11.93
2022-10-16T18:03:35.437Z,11.98
2022-10-16T18:06:37.346Z,11.95
2022-10-16T18:09:49.530Z,11.88
2022-10-16T18:13:00.425Z,11.61
2022-10-16T18:16:04.121Z,11.54
2022-10-16T18:19:05.528Z,11.50
2022-10-16T18:22:06.913Z,11.47
2022-10-16T18:25:08.505Z,11.48
2022-10-16T18:28:09.887Z,11.39
2022-10-16T18:31:14.041Z,11.27
2022-10-16T18:34:15.818Z,11.23
2022-10-16T18:37:17.891Z,11.21
2022-10-16T18:40:19.290Z,11.07
2022-10-16T18:43:20.650Z,11.03
2022-10-16T18:46:24.322Z,10.98
2022-10-16T18:49:25.741Z,10.88
2022-10-16T18:52:27.078Z,10.78
2022-10-16T18:55:30.662Z,10.78
2022-10-16T18:58:34.778Z,10.76
2022-10-16T19:01:37.498Z,10.64
2022-10-16T19:04:38.834Z,10.46
2022-10-16T19:07:40.189Z,10.45
2022-10-16T19:10:41.559Z,10.43
2022-10-16T19:13:44.531Z,10.34
2022-10-16T19:16:45.865Z,10.26
2022-10-16T19:19:47.192Z,10.23
2022-10-16T19:22:48.535Z,10.16
2022-10-16T19:25:49.877Z,10.10
2022-10-16T19:28:51.589Z,10.05
2022-10-16T19:31:52.936Z,10.04
2022-10-16T19:34:54.263Z,10.13
2022-10-16T19:37:55.600Z,10.36
2022-10-16T19:41:04.889Z,10.43
2022-10-16T19:44:08.848Z,10.33
2022-10-16T19:47:10.581Z,10.28
2022-10-16T19:50:12.546Z,10.31
2022-10-16T19:53:13.885Z,10.30
2022-10-16T19:56:20.853Z,10.12
2022-10-16T19:59:22.181Z,10.09
2022-10-16T20:02:23.509Z,10.14
2022-10-16T20:05:24.850Z,10.21
2022-10-16T20:08:26.237Z,10.19
2022-10-16T20:11:30.447Z,10.26
2022-10-16T20:14:31.775Z,10.23
2022-10-16T20:17:33.114Z,10.26
2022-10-16T20:20:41.044Z,10.31
2022-10-16T20:23:42.414Z,10.37
2022-10-16T20:26:44.231Z,10.41
2022-10-16T20:29:45.578Z,10.43
2022-10-16T20:32:46.903Z,10.42
2022-10-16T20:35:49.591Z,10.45
2022-10-16T20:38:51.775Z,10.39
2022-10-16T20:41:53.227Z,10.34
2022-10-16T20:44:54.578Z,10.22
2022-10-16T20:47:55.987Z,10.18
2022-10-16T20:50:57.663Z,10.16
2022-10-16T20:54:01.299Z,10.32
2022-10-16T20:57:02.656Z,10.31
2022-10-16T21:00:07.832Z,10.23
2022-10-16T21:03:11.236Z,10.31
2022-10-16T21:06:12.573Z,10.25
2022-10-16T21:09:13.951Z,10.26
2022-10-16T21:12:15.308Z,10.30
2022-10-16T21:15:16.683Z,10.28
2022-10-16T21:18:18.108Z,10.33
2022-10-16T21:21:25.751Z,10.42
2022-10-16T21:24:27.077Z,10.42
2022-10-16T21:27:28.552Z,10.25
2022-10-16T21:30:29.916Z,10.19
2022-10-16T21:33:31.253Z,10.27
2022-10-16T21:36:37.675Z,10.32
2022-10-16T21:39:39.113Z,10.37
2022-10-16T21:42:40.492Z,10.44
2022-10-16T21:45:41.801Z,10.56
2022-10-16T21:48:43.164Z,10.62
2022-10-16T21:51:50.089Z,10.53
2022-10-16T21:54:51.418Z,10.45
2022-10-16T21:57:52.737Z,10.49
2022-10-16T22:00:54.133Z,10.44
2022-10-16T22:03:55.533Z,10.46
2022-10-16T22:06:56.876Z,10.53
2022-10-16T22:09:58.222Z,10.57
2022-10-16T22:12:59.566Z,10.59
2022-10-16T22:16:01.230Z,10.62
2022-10-16T22:19:04.095Z,10.57
2022-10-16T22:22:05.545Z,10.44
2022-10-16T22:25:07.302Z,10.49
2022-10-16T22:28:09.186Z,10.52
2022-10-16T22:31:12.847Z,10.57
2022-10-16T22:34:14.326Z,10.55
2022-10-16T22:37:15.666Z,10.59
2022-10-16T22:40:17.129Z,10.63
2022-10-16T22:43:18.586Z,10.64
2022-10-16T22:46:22.455Z,10.66
2022-10-16T22:49:24.275Z,10.72
2022-10-16T22:52:25.914Z,10.69
2022-10-16T22:55:27.439Z,10.70
2022-10-16T22:58:29.247Z,10.76
2022-10-16T23:01:35.776Z,10.77
2022-10-16T23:04:37.123Z,10.70
2022-10-16T23:07:38.551Z,10.60
2022-10-16T23:10:45.896Z,10.53
2022-10-16T23:13:47.400Z,10.50
2022-10-16T23:16:49.673Z,10.52
2022-10-16T23:19:51.014Z,10.49
2022-10-16T23:22:52.389Z,10.47
2022-10-16T23:25:53.741Z,10.44
2022-10-16T23:28:56.706Z,10.46
2022-10-16T23:31:58.393Z,10.53
2022-10-16T23:34:59.845Z,10.62
2022-10-16T23:38:01.186Z,10.72
2022-10-16T23:41:02.923Z,10.83
2022-10-16T23:44:04.533Z,10.92
2022-10-16T23:47:05.867Z,10.97
2022-10-16T23:50:09.034Z,11.05
2022-10-16T23:53:10.425Z,11.09
2022-10-16T23:56:12.322Z,11.17
2022-10-16T23:59:13.689Z,11.23
